createdAt,value
2022-11-03T00:01:48.463Z,1.80
2022-11-03T00:04:17.966Z,2.47
2022-11-03T00:06:48.042Z,1.75
2022-11-03T00:09:17.330Z,1.83
2022-11-03T00:11:46.690Z,1.95
2022-11-03T00:14:15.385Z,1.92
2022-11-03T00:16:43.394Z,3.50
2022-11-03T00:19:11.638Z,1.42
2022-11-03T00:21:39.343Z,1.40
2022-11-03T00:24:07.084Z,1.77
2022-11-03T00:26:36.112Z,2.00
2022-11-03T00:29:14.590Z,1.65
2022-11-03T00:31:44.421Z,1.80
2022-11-03T00:34:12.341Z,3.38
2022-11-03T00:36:42.468Z,1.45
2022-11-03T00:39:10.944Z,1.80
2022-11-03T00:41:39.167Z,1.60
2022-11-03T00:44:06.988Z,1.52
2022-11-03T00:46:35.728Z,2.00
2022-11-03T00:49:05.049Z,1.30
2022-11-03T00:51:34.581Z,3.15
2022-11-03T00:54:04.283Z,2.42
2022-11-03T00:56:33.950Z,2.53
2022-11-03T00:59:02.829Z,2.50
2022-11-03T01:01:33.003Z,2.03
2022-11-03T01:04:20.155Z,2.93
2022-11-03T01:06:50.717Z,2.42
2022-11-03T01:09:31.829Z,2.63
2022-11-03T01:12:00.741Z,2.70
2022-11-03T01:14:31.885Z,1.25
2022-11-03T01:19:26.680Z,2.33
2022-11-03T01:21:54.947Z,1.50
2022-11-03T01:24:22.874Z,2.30
2022-11-03T01:26:50.916Z,2.17
2022-11-03T01:29:18.946Z,2.17
2022-11-03T01:31:46.353Z,2.22
2022-11-03T01:34:19.708Z,2.72
2022-11-03T01:36:47.900Z,1.77
2022-11-03T01:39:17.596Z,4.28
2022-11-03T01:41:48.069Z,2.53
2022-11-03T01:44:15.508Z,2.25
2022-11-03T01:46:47.714Z,1.30
2022-11-03T01:49:22.529Z,2.40
2022-11-03T01:51:55.975Z,2.88
2022-11-03T01:54:26.551Z,2.60
2022-11-03T01:56:54.908Z,2.65
2022-11-03T01:59:24.260Z,2.00
2022-11-03T02:01:52.022Z,2.97
2022-11-03T02:04:32.296Z,1.83
2022-11-03T02:07:23.222Z,1.40
2022-11-03T02:09:50.952Z,2.35
2022-11-03T02:12:21.466Z,2.25
2022-11-03T02:15:10.508Z,2.88
2022-11-03T02:17:39.983Z,1.40
2022-11-03T02:20:15.234Z,2.33
2022-11-03T02:23:07.435Z,2.00
2022-11-03T02:25:42.462Z,2.53
2022-11-03T02:28:10.967Z,1.88
2022-11-03T02:31:02.793Z,1.80
2022-11-03T02:33:41.968Z,3.20
2022-11-03T02:36:15.534Z,2.17
2022-11-03T02:38:54.483Z,2.95
2022-11-03T02:41:22.931Z,2.22
2022-11-03T02:43:51.217Z,1.55
2022-11-03T02:46:19.674Z,2.47
2022-11-03T02:48:49.154Z,1.83
2022-11-03T02:51:16.821Z,2.28
2022-11-03T02:53:59.051Z,1.80
2022-11-03T02:56:26.597Z,1.73
2022-11-03T02:59:07.165Z,2.05
2022-11-03T03:01:48.871Z,1.95
2022-11-03T03:04:20.415Z,1.73
2022-11-03T03:07:04.628Z,1.33
2022-11-03T03:09:44.884Z,3.08
2022-11-03T03:12:14.546Z,1.60
2022-11-03T03:14:46.069Z,2.08
2022-11-03T03:17:24.509Z,2.05
2022-11-03T03:20:28.911Z,1.80
2022-11-03T03:23:14.341Z,1.80
2022-11-03T03:25:47.097Z,2.83
2022-11-03T03:28:31.996Z,2.42
2022-11-03T03:31:02.878Z,2.25
2022-11-03T03:33:32.123Z,1.70
2022-11-03T03:36:01.941Z,1.90
2022-11-03T03:38:36.133Z,2.40
2022-11-03T03:41:10.376Z,2.95
2022-11-03T03:43:38.526Z,2.40
2022-11-03T03:46:10.358Z,2.45
2022-11-03T03:48:38.123Z,3.08
2022-11-03T03:51:06.981Z,2.05
2022-11-03T03:53:34.504Z,2.17
2022-11-03T03:56:02.000Z,1.55
2022-11-03T03:58:29.359Z,1.95
2022-11-03T04:00:56.778Z,2.25
2022-11-03T04:03:26.418Z,2.20
2022-11-03T04:05:56.843Z,2.35
2022-11-03T04:08:24.243Z,1.98
2022-11-03T04:11:09.905Z,2.33
2022-11-03T04:13:55.684Z,2.65
2022-11-03T04:16:41.354Z,2.75
2022-11-03T04:19:30.132Z,2.83
2022-11-03T04:22:15.725Z,2.75
2022-11-03T04:24:48.031Z,2.53
2022-11-03T04:27:31.859Z,2.38
2022-11-03T04:30:19.433Z,2.45
2022-11-03T04:32:52.069Z,2.08
2022-11-03T04:35:28.304Z,3.45
2022-11-03T04:38:16.763Z,3.42
2022-11-03T04:41:03.634Z,1.92
2022-11-03T04:43:36.094Z,2.17
2022-11-03T04:46:03.905Z,2.50
2022-11-03T04:48:32.023Z,2.13
2022-11-03T04:51:01.182Z,2.65
2022-11-03T04:53:31.978Z,2.22
2022-11-03T04:56:04.482Z,1.88
2022-11-03T04:58:36.457Z,2.15
2022-11-03T05:01:05.087Z,1.75
2022-11-03T05:03:37.759Z,2.08
2022-11-03T05:06:22.904Z,3.55
2022-11-03T05:08:53.469Z,2.38
2022-11-03T05:11:41.641Z,2.03
2022-11-03T05:14:36.864Z,2.75
2022-11-03T05:17:16.209Z,1.80
2022-11-03T05:19:44.377Z,2.72
2022-11-03T05:22:22.096Z,2.35
2022-11-03T05:24:56.831Z,1.83
2022-11-03T05:27:24.870Z,2.83
2022-11-03T05:29:57.922Z,2.50
2022-11-03T05:32:33.648Z,2.22
2022-11-03T05:35:01.405Z,1.67
2022-11-03T05:37:33.685Z,1.80
2022-11-03T05:40:10.456Z,1.98
2022-11-03T05:42:42.707Z,1.55
2022-11-03T05:45:24.831Z,1.83
2022-11-03T05:47:55.562Z,2.13
2022-11-03T05:50:25.537Z,2.85
2022-11-03T05:53:12.305Z,3.30
2022-11-03T05:55:40.968Z,2.50
2022-11-03T05:58:38.450Z,1.77
2022-11-03T06:01:26.223Z,1.77
2022-11-03T06:03:53.799Z,1.90
2022-11-03T06:06:21.121Z,2.10
2022-11-03T06:08:49.533Z,2.35
2022-11-03T06:11:28.879Z,1.98
2022-11-03T06:13:59.286Z,2.42
2022-11-03T06:16:52.604Z,1.50
2022-11-03T06:19:27.284Z,2.63
2022-11-03T06:21:58.335Z,1.65
2022-11-03T06:24:32.001Z,2.38
2022-11-03T06:26:59.454Z,1.60
2022-11-03T06:29:26.906Z,2.75
2022-11-03T06:31:58.137Z,1.90
2022-11-03T06:37:26.073Z,1.70
2022-11-03T06:40:02.069Z,2.28
2022-11-03T06:42:33.420Z,3.42
2022-11-03T06:45:02.795Z,1.42
2022-11-03T06:47:30.254Z,1.92
2022-11-03T06:49:59.816Z,2.38
2022-11-03T06:52:33.011Z,2.42
2022-11-03T06:55:15.579Z,1.65
2022-11-03T06:57:47.276Z,2.15
2022-11-03T07:00:40.986Z,1.42
2022-11-03T07:03:38.110Z,3.15
2022-11-03T07:06:11.504Z,2.30
2022-11-03T07:08:50.928Z,2.05
2022-11-03T07:11:25.593Z,2.40
2022-11-03T07:13:56.790Z,1.80
2022-11-03T07:19:04.004Z,2.72
2022-11-03T07:21:51.395Z,1.60
2022-11-03T07:24:25.741Z,2.05
2022-11-03T07:27:22.217Z,1.95
2022-11-03T07:29:51.624Z,2.92
2022-11-03T07:32:24.959Z,1.40
2022-11-03T07:35:11.155Z,2.38
2022-11-03T07:37:38.547Z,2.15
2022-11-03T07:40:12.488Z,2.38
2022-11-03T07:42:39.909Z,1.95
2022-11-03T07:45:38.746Z,2.47
2022-11-03T07:48:45.426Z,2.63
2022-11-03T07:51:33.310Z,1.73
2022-11-03T07:54:14.157Z,1.83
2022-11-03T07:56:50.289Z,1.20
2022-11-03T07:59:22.013Z,2.92
2022-11-03T08:01:54.138Z,3.17
2022-11-03T08:04:28.826Z,1.55
2022-11-03T08:06:56.350Z,1.98
2022-11-03T08:09:23.944Z,1.98
2022-11-03T08:11:51.908Z,1.30
2022-11-03T08:14:19.403Z,3.35
2022-11-03T08:16:46.800Z,5.25
2022-11-03T08:19:14.216Z,5.85
2022-11-03T08:21:41.651Z,6.85
2022-11-03T08:24:09.095Z,5.38
2022-11-03T08:26:36.485Z,5.53
2022-11-03T08:29:04.010Z,6.22
2022-11-03T08:31:31.413Z,5.05
2022-11-03T08:33:58.831Z,4.55
2022-11-03T08:36:26.301Z,5.80
2022-11-03T08:38:53.737Z,5.68
2022-11-03T08:41:21.104Z,5.25
2022-11-03T08:43:48.462Z,4.32
2022-11-03T08:46:18.097Z,5.38
2022-11-03T08:48:46.957Z,6.43
2022-11-03T08:51:15.364Z,5.00
2022-11-03T08:53:43.380Z,3.42
2022-11-03T08:56:13.397Z,4.03
2022-11-03T09:01:09.128Z,3.72
2022-11-03T09:03:36.672Z,3.67
2022-11-03T09:06:04.161Z,3.45
2022-11-03T09:11:19.022Z,4.03
2022-11-03T09:13:46.504Z,2.92
2022-11-03T09:16:13.916Z,2.60
2022-11-03T09:18:41.317Z,2.75
2022-11-03T09:21:09.058Z,5.15
2022-11-03T09:23:36.581Z,6.25
2022-11-03T09:26:05.925Z,3.65
2022-11-03T09:28:33.570Z,3.22
2022-11-03T09:31:00.971Z,3.80
2022-11-03T09:33:28.449Z,3.15
2022-11-03T09:35:55.809Z,3.70
2022-11-03T09:38:23.216Z,4.07
2022-11-03T09:40:50.674Z,3.15
2022-11-03T09:43:18.628Z,1.90
2022-11-03T09:45:46.050Z,3.10
2022-11-03T09:48:13.847Z,3.00
2022-11-03T09:50:41.667Z,2.60
2022-11-03T09:53:14.644Z,3.47
2022-11-03T09:55:42.145Z,1.80
2022-11-03T09:58:17.760Z,3.92
2022-11-03T10:00:46.187Z,3.17
2022-11-03T10:03:15.831Z,3.63
2022-11-03T10:05:45.415Z,3.63
2022-11-03T10:08:31.999Z,2.38
2022-11-03T10:11:00.991Z,3.65
2022-11-03T10:13:33.493Z,3.83
2022-11-03T10:16:07.251Z,4.10
2022-11-03T10:18:35.771Z,3.17
2022-11-03T10:21:28.546Z,3.80
2022-11-03T10:23:56.029Z,3.28
2022-11-03T10:26:23.507Z,3.35
2022-11-03T10:28:59.879Z,2.35
2022-11-03T10:31:41.875Z,2.25
2022-11-03T10:34:24.580Z,2.95
2022-11-03T10:37:12.751Z,3.35
2022-11-03T10:39:40.106Z,3.90
2022-11-03T10:42:30.593Z,2.80
2022-11-03T10:45:18.259Z,2.22
2022-11-03T10:48:00.811Z,1.67
2022-11-03T10:50:28.723Z,1.77
2022-11-03T10:52:56.897Z,2.00
2022-11-03T10:55:25.907Z,2.42
2022-11-03T10:57:58.197Z,2.38
2022-11-03T11:00:25.890Z,3.65
2022-11-03T11:02:59.038Z,2.83
2022-11-03T11:05:27.629Z,2.20
2022-11-03T11:07:55.740Z,1.92
2022-11-03T11:10:26.048Z,1.40
2022-11-03T11:13:18.955Z,2.30
2022-11-03T11:15:48.065Z,1.25
2022-11-03T11:18:38.715Z,2.85
2022-11-03T11:21:18.094Z,2.90
2022-11-03T11:23:47.193Z,1.73
2022-11-03T11:26:20.701Z,2.53
2022-11-03T11:29:15.915Z,2.08
2022-11-03T11:31:44.545Z,2.42
2022-11-03T11:34:21.457Z,3.10
2022-11-03T11:36:55.788Z,3.03
2022-11-03T11:39:31.501Z,1.60
2022-11-03T11:42:08.374Z,2.28
2022-11-03T11:44:50.141Z,2.40
2022-11-03T11:47:23.639Z,2.08
2022-11-03T11:50:06.655Z,3.20
2022-11-03T11:52:48.758Z,2.65
2022-11-03T11:55:37.445Z,2.50
2022-11-03T11:58:51.953Z,1.40
2022-11-03T12:01:19.351Z,1.77
2022-11-03T12:03:47.430Z,1.77
2022-11-03T12:06:15.484Z,2.00
2022-11-03T12:08:44.018Z,1.77
2022-11-03T12:11:14.617Z,2.08
2022-11-03T12:13:51.579Z,2.92
2022-11-03T12:16:38.293Z,2.92
2022-11-03T12:19:36.627Z,2.20
2022-11-03T12:22:12.494Z,2.38
2022-11-03T12:25:04.121Z,1.92
2022-11-03T12:27:32.020Z,1.83
2022-11-03T12:30:02.712Z,2.08
2022-11-03T12:32:33.480Z,2.03
2022-11-03T12:35:05.471Z,2.00
2022-11-03T12:37:33.146Z,2.40
2022-11-03T12:40:00.771Z,1.75
2022-11-03T12:42:28.227Z,1.92
2022-11-03T12:44:56.184Z,2.33
2022-11-03T12:47:23.713Z,2.25
2022-11-03T12:49:51.185Z,2.78
2022-11-03T12:52:18.601Z,1.45
2022-11-03T12:54:46.021Z,2.28
2022-11-03T12:57:14.080Z,3.65
2022-11-03T12:59:41.758Z,1.85
2022-11-03T13:02:10.986Z,2.90
2022-11-03T13:04:39.638Z,2.20
2022-11-03T13:07:07.083Z,2.30
2022-11-03T13:09:36.133Z,2.95
2022-11-03T13:12:22.339Z,2.00
2022-11-03T13:14:49.892Z,1.90
2022-11-03T13:17:17.320Z,3.50
2022-11-03T13:19:44.710Z,3.30
2022-11-03T13:22:12.185Z,1.85
2022-11-03T13:24:40.685Z,2.40
2022-11-03T13:27:08.088Z,1.73
2022-11-03T13:29:36.414Z,2.75
2022-11-03T13:32:04.782Z,2.90
2022-11-03T13:34:32.297Z,2.28
2022-11-03T13:36:59.918Z,4.07
2022-11-03T13:39:27.336Z,2.63
2022-11-03T13:41:54.753Z,2.58
2022-11-03T13:44:22.208Z,2.00
2022-11-03T13:46:49.630Z,2.17
2022-11-03T13:52:04.703Z,2.10
2022-11-03T14:00:09.190Z,1.40
2022-11-03T14:05:24.170Z,2.60
2022-11-03T14:07:51.596Z,2.88
2022-11-03T14:10:19.176Z,2.78
2022-11-03T14:12:46.678Z,1.88
2022-11-03T14:15:15.172Z,2.00
2022-11-03T14:17:42.587Z,1.75
2022-11-03T14:20:13.101Z,2.17
2022-11-03T14:22:41.015Z,1.50
2022-11-03T14:25:09.799Z,1.85
2022-11-03T14:27:37.298Z,1.85
2022-11-03T14:30:05.360Z,3.45
2022-11-03T14:32:32.824Z,1.25
2022-11-03T14:35:00.329Z,2.50
2022-11-03T14:37:28.842Z,1.95
2022-11-03T14:39:56.378Z,2.17
2022-11-03T14:42:23.807Z,1.38
2022-11-03T14:47:23.613Z,1.58
2022-11-03T14:49:51.115Z,1.40
2022-11-03T14:52:18.901Z,2.28
2022-11-03T14:54:46.347Z,1.23
2022-11-03T14:57:16.811Z,2.25
2022-11-03T14:59:46.727Z,1.40
2022-11-03T15:02:16.912Z,1.92
2022-11-03T15:04:44.468Z,1.45
2022-11-03T15:07:11.959Z,1.50
2022-11-03T15:09:39.349Z,2.10
2022-11-03T15:12:06.933Z,1.38
2022-11-03T15:14:34.497Z,1.42
2022-11-03T15:17:02.228Z,2.03
2022-11-03T15:19:29.640Z,1.27
2022-11-03T15:21:57.111Z,2.25
2022-11-03T15:27:13.177Z,2.63
2022-11-03T15:29:40.641Z,1.95
2022-11-03T15:32:08.043Z,3.92
2022-11-03T15:34:35.516Z,3.55
2022-11-03T15:37:02.908Z,2.00
2022-11-03T15:39:30.404Z,3.35
2022-11-03T15:42:00.291Z,1.75
2022-11-03T15:44:27.931Z,2.00
2022-11-03T15:46:55.407Z,1.48
2022-11-03T15:49:22.813Z,2.33
2022-11-03T15:51:50.267Z,2.97
2022-11-03T15:54:17.789Z,2.55
2022-11-03T15:56:45.194Z,2.47
2022-11-03T15:59:12.604Z,3.13
2022-11-03T16:01:40.086Z,1.85
2022-11-03T16:04:07.748Z,3.75
2022-11-03T16:07:01.603Z,3.22
2022-11-03T16:09:22.636Z,2.58
2022-11-03T16:11:50.033Z,1.35
2022-11-03T16:14:17.514Z,1.27
2022-11-03T16:16:45.228Z,2.33
2022-11-03T16:19:12.646Z,2.83
2022-11-03T16:21:40.096Z,2.20
2022-11-03T16:24:08.954Z,2.60
2022-11-03T16:26:36.349Z,2.80
2022-11-03T16:29:03.931Z,1.65
2022-11-03T16:31:31.873Z,1.90
2022-11-03T16:33:59.375Z,2.35
2022-11-03T16:36:26.841Z,1.08
2022-11-03T16:38:54.337Z,2.00
2022-11-03T16:41:21.756Z,2.90
2022-11-03T16:43:50.008Z,2.00
2022-11-03T16:46:17.439Z,2.05
2022-11-03T16:48:44.904Z,1.10
2022-11-03T16:51:12.432Z,1.42
2022-11-03T16:53:39.912Z,2.30
2022-11-03T16:56:07.544Z,1.83
2022-11-03T16:58:35.109Z,1.92
2022-11-03T17:01:02.593Z,1.85
2022-11-03T17:03:30.279Z,1.75
2022-11-03T17:05:58.150Z,1.23
2022-11-03T17:08:51.108Z,1.77
2022-11-03T17:11:13.246Z,1.33
2022-11-03T17:13:40.798Z,2.15
2022-11-03T17:16:08.286Z,1.52
2022-11-03T17:18:35.705Z,1.15
2022-11-03T17:21:03.092Z,1.42
2022-11-03T17:23:30.561Z,4.40
2022-11-03T17:26:01.408Z,1.67
2022-11-03T17:28:28.873Z,1.33
2022-11-03T17:30:56.316Z,0.95
2022-11-03T17:33:23.827Z,1.58
2022-11-03T17:35:51.242Z,1.33
2022-11-03T17:38:19.178Z,2.70
2022-11-03T17:40:48.544Z,1.30
2022-11-03T17:43:34.657Z,1.77
2022-11-03T17:46:02.073Z,1.73
2022-11-03T17:48:29.481Z,1.73
2022-11-03T17:50:57.726Z,1.90
2022-11-03T17:53:28.846Z,2.35
2022-11-03T17:58:47.163Z,1.48
2022-11-03T18:01:22.825Z,2.17
2022-11-03T18:03:50.582Z,1.15
2022-11-03T18:06:19.852Z,1.63
2022-11-03T18:08:48.407Z,3.08
2022-11-03T18:11:48.669Z,1.30
2022-11-03T18:14:16.722Z,1.40
2022-11-03T18:16:44.353Z,1.73
2022-11-03T18:19:16.899Z,1.30
2022-11-03T18:21:44.987Z,1.73
2022-11-03T18:24:17.985Z,1.40
2022-11-03T18:26:45.576Z,2.17
2022-11-03T18:29:13.120Z,1.73
2022-11-03T18:31:50.830Z,1.50
2022-11-03T18:34:27.867Z,1.75
2022-11-03T18:36:55.508Z,2.28
2022-11-03T18:39:26.458Z,1.73
2022-11-03T18:41:55.772Z,1.45
2022-11-03T18:44:29.335Z,1.15
2022-11-03T18:46:59.639Z,1.67
2022-11-03T18:49:27.775Z,1.63
2022-11-03T18:52:04.408Z,1.58
2022-11-03T18:54:34.976Z,1.20
2022-11-03T18:57:03.698Z,3.55
2022-11-03T18:59:35.170Z,1.38
2022-11-03T19:02:07.465Z,1.17
2022-11-03T19:04:36.808Z,1.27
2022-11-03T19:07:09.356Z,1.50
2022-11-03T19:09:36.885Z,1.65
2022-11-03T19:12:04.886Z,1.33
2022-11-03T19:14:35.843Z,1.17
2022-11-03T19:17:27.680Z,1.00
2022-11-03T19:19:56.336Z,1.67
2022-11-03T19:22:27.670Z,1.48
2022-11-03T19:24:55.273Z,1.50
2022-11-03T19:27:31.873Z,1.50
2022-11-03T19:30:02.508Z,1.35
2022-11-03T19:32:34.782Z,1.20
2022-11-03T19:35:04.725Z,1.30
2022-11-03T19:37:35.703Z,1.15
2022-11-03T19:40:09.175Z,1.10
2022-11-03T19:42:37.225Z,1.80
2022-11-03T19:45:08.330Z,1.10
2022-11-03T19:47:47.797Z,1.55
2022-11-03T19:50:26.615Z,1.10
2022-11-03T19:52:57.161Z,2.05
2022-11-03T19:55:28.768Z,1.20
2022-11-03T19:58:00.978Z,1.13
2022-11-03T20:00:28.532Z,1.02
2022-11-03T20:02:55.940Z,1.65
2022-11-03T20:05:23.421Z,1.20
2022-11-03T20:07:50.808Z,0.95
2022-11-03T20:10:21.409Z,1.30
2022-11-03T20:12:48.865Z,1.45
2022-11-03T20:15:19.212Z,1.40
2022-11-03T20:17:47.994Z,1.20
2022-11-03T20:20:17.875Z,1.42
2022-11-03T20:22:49.592Z,1.20
2022-11-03T20:25:21.228Z,1.20
2022-11-03T20:27:49.829Z,1.35
2022-11-03T20:30:18.895Z,1.77
2022-11-03T20:32:47.190Z,1.02
2022-11-03T20:35:23.017Z,1.30
2022-11-03T20:37:55.223Z,1.88
2022-11-03T20:40:26.023Z,1.02
2022-11-03T20:42:58.684Z,1.30
2022-11-03T20:45:29.738Z,1.35
2022-11-03T20:50:26.535Z,1.48
2022-11-03T20:52:54.549Z,1.20
2022-11-03T20:55:24.852Z,1.30
2022-11-03T20:57:53.632Z,2.78
2022-11-03T21:00:24.350Z,1.75
2022-11-03T21:02:52.363Z,1.48
2022-11-03T21:05:22.521Z,1.10
2022-11-03T21:07:50.532Z,1.20
2022-11-03T21:10:20.975Z,1.17
2022-11-03T21:12:49.261Z,1.48
2022-11-03T21:16:10.586Z,0.88
2022-11-03T21:18:50.580Z,1.30
2022-11-03T21:21:24.733Z,1.80
2022-11-03T21:23:52.136Z,1.48
2022-11-03T21:26:19.513Z,1.20
2022-11-03T21:28:46.889Z,1.58
2022-11-03T21:31:14.636Z,2.78
2022-11-03T21:33:42.121Z,1.48
2022-11-03T21:36:09.918Z,1.02
2022-11-03T21:38:37.536Z,1.65
2022-11-03T21:41:26.628Z,1.30
2022-11-03T21:44:12.448Z,1.58
2022-11-03T21:46:40.142Z,1.30
2022-11-03T21:49:26.065Z,1.25
2022-11-03T21:51:53.520Z,1.60
2022-11-03T21:54:21.330Z,1.58
2022-11-03T21:56:48.706Z,1.30
2022-11-03T21:59:16.126Z,1.30
2022-11-03T22:01:43.571Z,1.25
2022-11-03T22:04:11.153Z,0.90
2022-11-03T22:06:38.558Z,1.50
2022-11-03T22:09:06.037Z,1.17
2022-11-03T22:11:33.456Z,1.30
2022-11-03T22:14:01.929Z,1.13
2022-11-03T22:16:40.932Z,1.10
2022-11-03T22:19:37.766Z,1.48
2022-11-03T22:22:34.431Z,1.23
2022-11-03T22:25:20.130Z,1.08
2022-11-03T22:27:47.663Z,1.10
2022-11-03T22:30:33.682Z,1.00
2022-11-03T22:33:01.039Z,1.10
2022-11-03T22:35:46.854Z,1.30
2022-11-03T22:38:16.914Z,1.38
2022-11-03T22:41:06.263Z,1.08
2022-11-03T22:43:52.982Z,1.20
2022-11-03T22:46:21.006Z,1.75
2022-11-03T22:48:48.402Z,1.20
2022-11-03T22:51:16.976Z,1.23
2022-11-03T22:54:02.965Z,1.10
2022-11-03T22:56:30.886Z,1.13
2022-11-03T22:58:58.361Z,1.30
2022-11-03T23:01:27.081Z,1.30
2022-11-03T23:03:55.006Z,1.05
2022-11-03T23:06:24.878Z,1.30
2022-11-03T23:08:54.601Z,1.10
2022-11-03T23:11:27.202Z,1.00
2022-11-03T23:13:57.989Z,1.30
2022-11-03T23:16:33.170Z,1.70
2022-11-03T23:19:19.793Z,1.27
2022-11-03T23:21:49.393Z,1.08
2022-11-03T23:24:38.044Z,1.27
2022-11-03T23:27:08.407Z,1.30
2022-11-03T23:29:36.080Z,1.30
2022-11-03T23:32:03.786Z,1.35
2022-11-03T23:34:31.286Z,1.00
2022-11-03T23:36:59.181Z,1.40
2022-11-03T23:39:26.570Z,1.23
2022-11-03T23:41:53.951Z,1.30
2022-11-03T23:44:21.483Z,1.80
2022-11-03T23:47:07.713Z,1.17
2022-11-03T23:49:35.099Z,1.25
2022-11-03T23:52:02.448Z,1.65
2022-11-03T23:54:29.942Z,1.50
2022-11-03T23:57:15.962Z,1.58
